Port Jefferson Station, NY (11776)

7:58 AM EDT on October 31, 2014 (GMT -0400)
KNYMT.SI1 | Change Station
CLOSE
Current Station
Personal Weather Station
Location: Mt. Sinai, NY
Elevation: 165 ft
Nearby Weather Stations

Elev 165 ft 40.94 °N, 73.04 °W | Updated 6 seconds ago

Overcast
Overcast
48.4 °F
Feels Like 48 °F
N
1.1
Wind Variable Wind from NE
Gusts 3.5 mph

Today
High -- | Low -- °F
--% Chance of Precip.
Yesterday
High -- | Low -- °F
Precip. -- in
7:21 AM 5:49 PM
First Quarter, 54% visible
Pressure 29.99 in
Visibility 10.0 miles
Clouds Mostly Cloudy 4900 ft
Windchill 48 °F
Dew Point 42 °F
Humidity 77%
Rainfall 0.00 in
Snow Depth Not available.
UV 0 out of 12
Pollen .20 out of 12
Air Quality Not available.
Flu Activity Not available.
METAR KISP 311056Z 02005KT 10SM BKN049 08/02 A2998 RMK AO2 SLP153 T00780022

More Conditions Fewer Conditions

Pressure 29.99 in
Visibility 10.0 miles
Clouds Mostly Cloudy 4900 ft
Windchill 48 °F
Dew Point 42 °F
Humidity 77%
Rainfall 0.00 in
Snow Depth Not available.
UV 0 out of 12
Pollen .20 out of 12
Air Quality Not available.
Flu Activity Not available.
METAR KISP 311056Z 02005KT 10SM BKN049 08/02 A2998 RMK AO2 SLP153 T00780022

More Conditions Fewer Conditions

10-Day Weather Forecast

Almanac

Astronomy

Oct. 31, 2014 Rise Set
Actual Time
Civil Twilight
Nautical Twilight
Astronomical Twilight
Moon
Length of Visible Light
Length of Day
Tomorrow will be .
, % of the Moon is Illuminated

Today's Extremes

State Highs State Lows

Community

WunderPhotos

Upload Photos

1,766,581 photos uploaded!

WunderBlogs® & News

Nearby

Air Quality

  Air Quality AQ Index Pollutant
Not available.

Snow Depth

Station Depth Elevation

Earthquake Activity

City Distance Mag. Time & Date
Minimum magnitude displayed is 2.5.

Coastal Water Temperatures

Place Temperature

Nearby Weather Stations